La Crescenta, California
Current Conditions -  °F | °C
As of 12:53 PM on Friday 19 Dec 2014 (Local Time) from KBUR Reporting Station
Clear Clear  
Wind Chill: 63°   Ceiling: Unl
Heat Index: 63°   Visibility: 10mi
Dew Point: 43°   Wind: 6mph
Humidity: 48%   Direction: 270°W
Pressure: 30.18"   Gusts: NA
Location:  34.22°N, 118.24°W
Report Text: KBUR 192053Z 27005KT 10SM CLR 17/06 A3018 RMK AO2 SLP212 T01720061 58015
Loading
Personal Weather Stations






























Interactive Weather Map New forecast layout! Learn more

10-Day Weather Forecast

Advertisements
Track Severe Weather on mobile